createdAt,value
2023-01-18T00:00:10.516Z,48.80
2023-01-18T00:02:37.394Z,46.70
2023-01-18T00:05:04.254Z,42.67
2023-01-18T00:07:31.418Z,45.53
2023-01-18T00:09:57.984Z,44.73
2023-01-18T00:12:24.602Z,45.37
2023-01-18T00:14:51.255Z,47.10
2023-01-18T00:17:17.858Z,41.30
2023-01-18T00:19:44.462Z,41.30
2023-01-18T00:22:11.064Z,46.77
2023-01-18T00:24:37.649Z,39.40
2023-01-18T00:27:04.366Z,40.37
2023-01-18T00:29:31.478Z,39.67
2023-01-18T00:31:58.089Z,37.20
2023-01-18T00:34:28.193Z,38.23
2023-01-18T00:36:54.781Z,34.73
2023-01-18T00:39:21.516Z,37.07
2023-01-18T00:42:06.763Z,38.57
2023-01-18T00:44:33.325Z,29.47
2023-01-18T00:46:59.928Z,29.90
2023-01-18T00:49:26.554Z,31.67
2023-01-18T00:51:53.226Z,35.67
2023-01-18T00:54:19.930Z,29.97
2023-01-18T00:56:46.516Z,42.13
2023-01-18T00:59:13.131Z,32.67
2023-01-18T01:01:39.957Z,25.37
2023-01-18T01:04:25.270Z,26.13
2023-01-18T01:06:51.913Z,40.23
2023-01-18T01:09:25.277Z,35.20
2023-01-18T01:12:11.395Z,35.07
2023-01-18T01:14:59.948Z,35.93
2023-01-18T01:17:47.206Z,31.60
2023-01-18T01:20:32.491Z,25.93
2023-01-18T01:23:27.366Z,31.10
2023-01-18T01:26:09.184Z,33.17
2023-01-18T01:28:40.468Z,32.67
2023-01-18T01:31:09.875Z,29.73
2023-01-18T01:33:37.008Z,32.47
2023-01-18T01:36:15.491Z,30.83
2023-01-18T01:38:42.509Z,37.37
2023-01-18T01:41:15.149Z,27.07
2023-01-18T01:43:49.634Z,30.90
2023-01-18T01:46:22.366Z,32.87
2023-01-18T01:48:49.064Z,35.93
2023-01-18T01:51:18.699Z,32.23
2023-01-18T01:53:47.296Z,39.00
2023-01-18T01:56:13.960Z,30.87
2023-01-18T01:58:41.174Z,32.77
2023-01-18T02:01:09.157Z,34.40
2023-01-18T02:03:39.095Z,38.83
2023-01-18T02:06:31.973Z,36.10
2023-01-18T02:09:04.898Z,27.97
2023-01-18T02:11:31.587Z,30.77
2023-01-18T02:14:01.866Z,32.03
2023-01-18T02:16:33.262Z,33.60
2023-01-18T02:19:13.590Z,29.93
2023-01-18T02:21:44.251Z,28.63
2023-01-18T02:24:23.320Z,33.20
2023-01-18T02:26:58.650Z,29.87
2023-01-18T02:29:59.181Z,26.47
2023-01-18T02:32:32.677Z,30.47
2023-01-18T02:35:07.660Z,33.77
2023-01-18T02:37:43.441Z,43.33
2023-01-18T02:40:37.701Z,36.60
2023-01-18T02:43:23.891Z,33.23
2023-01-18T02:46:09.035Z,39.17
2023-01-18T02:48:38.184Z,27.70
2023-01-18T02:51:05.651Z,29.57
2023-01-18T02:53:34.110Z,33.13
2023-01-18T02:56:01.624Z,33.30
2023-01-18T02:58:33.939Z,36.07
2023-01-18T03:01:17.417Z,37.60
2023-01-18T03:03:46.524Z,34.60
2023-01-18T03:06:13.919Z,39.83
2023-01-18T03:08:47.209Z,35.20
2023-01-18T03:11:23.474Z,32.63
2023-01-18T03:14:31.748Z,43.17
2023-01-18T03:17:05.777Z,27.10
2023-01-18T03:20:02.674Z,30.47
2023-01-18T03:22:51.736Z,32.77
2023-01-18T03:25:20.732Z,37.03
2023-01-18T03:28:07.352Z,30.00
2023-01-18T03:30:52.920Z,43.37
2023-01-18T03:33:40.791Z,39.43
2023-01-18T03:36:11.155Z,32.20
2023-01-18T03:38:39.647Z,35.50
2023-01-18T03:41:07.134Z,31.07
2023-01-18T03:43:37.839Z,28.33
2023-01-18T03:46:05.097Z,35.47
2023-01-18T03:48:32.563Z,33.33
2023-01-18T03:51:18.711Z,34.43
2023-01-18T03:53:51.367Z,33.97
2023-01-18T03:56:26.183Z,29.40
2023-01-18T03:58:54.514Z,34.17
2023-01-18T04:01:21.496Z,36.03
2023-01-18T04:03:48.231Z,29.80
2023-01-18T04:06:15.076Z,33.77
2023-01-18T04:08:41.761Z,31.83
2023-01-18T04:11:08.431Z,32.77
2023-01-18T04:13:34.992Z,36.93
2023-01-18T04:16:01.689Z,32.60
2023-01-18T04:18:28.450Z,35.83
2023-01-18T04:20:56.486Z,37.53
2023-01-18T04:23:23.951Z,38.70
2023-01-18T04:25:51.343Z,41.87
2023-01-18T04:28:25.202Z,37.07
2023-01-18T04:30:52.840Z,40.90
2023-01-18T04:33:20.710Z,42.80
2023-01-18T04:35:47.929Z,28.77
2023-01-18T04:38:15.136Z,39.73
2023-01-18T04:40:42.131Z,35.97
2023-01-18T04:43:08.959Z,36.57
2023-01-18T04:45:35.603Z,38.17
2023-01-18T04:48:02.230Z,34.33
2023-01-18T04:50:28.868Z,30.40
2023-01-18T04:52:56.062Z,42.63
2023-01-18T04:55:22.815Z,40.50
2023-01-18T04:57:57.302Z,37.87
2023-01-18T05:00:24.222Z,35.30
2023-01-18T05:02:51.192Z,32.87
2023-01-18T05:05:17.893Z,35.57
2023-01-18T05:07:44.625Z,38.70
2023-01-18T05:10:11.487Z,35.77
2023-01-18T05:12:38.205Z,31.37
2023-01-18T05:15:05.897Z,32.57
2023-01-18T05:17:35.086Z,35.77
2023-01-18T05:20:02.483Z,37.37
2023-01-18T05:22:29.260Z,40.07
2023-01-18T05:24:56.198Z,32.20
2023-01-18T05:27:22.802Z,35.53
2023-01-18T05:29:49.459Z,35.97
2023-01-18T05:32:16.077Z,36.40
2023-01-18T05:34:44.028Z,42.57
2023-01-18T05:37:10.991Z,37.27
2023-01-18T05:39:37.687Z,40.93
2023-01-18T05:42:05.590Z,40.70
2023-01-18T05:44:32.614Z,35.77
2023-01-18T05:46:59.457Z,33.53
2023-01-18T05:49:26.146Z,43.17
2023-01-18T05:51:52.769Z,40.23
2023-01-18T05:54:20.061Z,36.73
2023-01-18T05:56:46.765Z,36.87
2023-01-18T05:59:15.653Z,30.37
2023-01-18T06:01:42.575Z,37.20
2023-01-18T06:04:09.381Z,34.17
2023-01-18T06:06:36.013Z,35.10
2023-01-18T06:09:03.425Z,41.30
2023-01-18T06:11:30.133Z,58.53
2023-01-18T06:13:56.747Z,44.77
2023-01-18T06:16:24.603Z,38.60
2023-01-18T06:18:51.363Z,34.30
2023-01-18T06:21:18.040Z,43.80
2023-01-18T06:23:44.662Z,41.83
2023-01-18T06:26:11.302Z,44.57
2023-01-18T06:28:37.932Z,39.80
2023-01-18T06:31:07.767Z,38.87
2023-01-18T06:33:34.438Z,43.37
2023-01-18T06:36:01.472Z,44.50
2023-01-18T06:38:28.894Z,47.53
2023-01-18T06:40:57.105Z,45.40
2023-01-18T06:43:25.104Z,44.03
2023-01-18T06:45:53.672Z,41.67
2023-01-18T06:48:20.431Z,46.00
2023-01-18T06:50:47.006Z,47.70
2023-01-18T06:53:14.611Z,57.50
2023-01-18T06:55:41.359Z,47.37
2023-01-18T06:58:07.943Z,50.07
2023-01-18T07:00:35.022Z,50.20
2023-01-18T07:03:01.638Z,60.77
2023-01-18T07:05:28.218Z,61.13
2023-01-18T07:07:54.783Z,47.73
2023-01-18T07:10:21.419Z,50.37
2023-01-18T07:12:48.900Z,46.83
2023-01-18T07:15:21.995Z,42.83
2023-01-18T07:17:50.380Z,59.47
2023-01-18T07:20:17.297Z,56.33
2023-01-18T07:22:44.007Z,52.93
2023-01-18T07:25:13.369Z,49.40
2023-01-18T07:27:43.192Z,47.67
2023-01-18T07:30:13.168Z,45.83
2023-01-18T07:32:40.199Z,38.37
2023-01-18T07:35:07.365Z,43.83
2023-01-18T07:37:34.145Z,44.27
2023-01-18T07:40:05.231Z,46.70
2023-01-18T07:42:31.858Z,51.57
2023-01-18T07:44:58.866Z,42.97
2023-01-18T07:47:25.511Z,41.80
2023-01-18T07:49:52.166Z,42.13
2023-01-18T07:52:18.818Z,47.03
2023-01-18T07:54:45.924Z,47.30
2023-01-18T07:57:12.547Z,48.07
2023-01-18T07:59:39.838Z,40.70
2023-01-18T08:02:08.789Z,69.27
2023-01-18T08:04:35.453Z,48.77
2023-01-18T08:07:02.074Z,41.90
2023-01-18T08:09:28.798Z,36.00
2023-01-18T08:11:55.608Z,39.73
2023-01-18T08:14:22.295Z,44.03
2023-01-18T08:16:48.980Z,52.77
2023-01-18T08:19:16.622Z,40.23
2023-01-18T08:21:44.297Z,36.70
2023-01-18T08:24:10.936Z,38.03
2023-01-18T08:26:38.003Z,37.73
2023-01-18T08:29:04.736Z,45.67
2023-01-18T08:31:31.419Z,47.33
2023-01-18T08:33:58.182Z,45.97
2023-01-18T08:36:25.918Z,44.07
2023-01-18T08:38:56.800Z,42.73
2023-01-18T08:41:28.336Z,54.30
2023-01-18T08:43:55.653Z,52.97
2023-01-18T08:46:22.648Z,56.37
2023-01-18T08:48:51.059Z,47.53
2023-01-18T08:51:22.852Z,49.93
2023-01-18T08:53:54.405Z,49.80
2023-01-18T08:56:21.414Z,49.80
2023-01-18T08:58:48.568Z,50.80
2023-01-18T09:01:15.264Z,46.50
2023-01-18T09:03:42.508Z,45.77
2023-01-18T09:06:12.514Z,45.07
2023-01-18T09:08:39.823Z,46.60
2023-01-18T09:11:08.303Z,52.83
2023-01-18T09:13:35.200Z,50.07
2023-01-18T09:16:03.994Z,51.37
2023-01-18T09:18:30.837Z,48.03
2023-01-18T09:20:58.207Z,49.40
2023-01-18T09:23:25.382Z,51.90
2023-01-18T09:26:06.341Z,50.07
2023-01-18T09:28:33.484Z,51.33
2023-01-18T09:31:05.209Z,51.73
2023-01-18T09:33:37.589Z,54.07
2023-01-18T09:36:07.732Z,49.53
2023-01-18T09:38:35.109Z,53.77
2023-01-18T09:41:02.384Z,66.17
2023-01-18T09:43:41.152Z,53.83
2023-01-18T09:46:18.060Z,51.50
2023-01-18T09:48:45.830Z,55.27
2023-01-18T09:51:34.218Z,46.67
2023-01-18T09:54:42.950Z,50.70
2023-01-18T09:57:51.933Z,55.03
2023-01-18T10:00:22.781Z,48.47
2023-01-18T10:02:53.600Z,55.03
2023-01-18T10:05:23.316Z,48.30
2023-01-18T10:08:13.419Z,52.03
2023-01-18T10:10:43.831Z,46.03
2023-01-18T10:13:33.767Z,54.40
2023-01-18T10:16:01.278Z,49.20
2023-01-18T10:18:28.581Z,54.23
2023-01-18T10:21:01.775Z,48.90
2023-01-18T10:23:35.211Z,50.67
2023-01-18T10:26:04.165Z,53.10
2023-01-18T10:28:50.857Z,61.33
2023-01-18T10:31:24.818Z,53.87
2023-01-18T10:33:53.932Z,52.57
2023-01-18T10:36:26.085Z,57.30
2023-01-18T10:38:54.108Z,53.67
2023-01-18T10:41:27.629Z,55.63
2023-01-18T10:43:54.852Z,52.33
2023-01-18T10:46:21.750Z,52.70
2023-01-18T10:48:50.785Z,50.37
2023-01-18T10:51:49.607Z,49.75
2023-01-18T10:54:19.168Z,59.47
2023-01-18T10:56:46.026Z,50.72
2023-01-18T10:59:25.246Z,57.00
2023-01-18T11:01:55.119Z,55.10
2023-01-18T11:04:29.344Z,50.00
2023-01-18T11:07:00.742Z,46.23
2023-01-18T11:09:48.444Z,47.27
2023-01-18T11:12:51.099Z,56.45
2023-01-18T11:15:18.911Z,53.15
2023-01-18T11:17:58.762Z,49.22
2023-01-18T11:20:33.881Z,41.58
2023-01-18T11:23:00.891Z,49.78
2023-01-18T11:25:36.597Z,46.10
2023-01-18T11:28:03.959Z,44.63
2023-01-18T11:30:30.718Z,43.45
2023-01-18T11:32:59.997Z,38.88
2023-01-18T11:35:34.436Z,45.53
2023-01-18T11:38:02.990Z,45.55
2023-01-18T11:40:32.309Z,37.10
2023-01-18T11:43:03.653Z,41.15
2023-01-18T11:45:40.489Z,36.67
2023-01-18T11:48:48.611Z,35.35
2023-01-18T11:51:24.646Z,49.55
2023-01-18T11:54:04.878Z,37.15
2023-01-18T11:56:31.369Z,35.60
2023-01-18T11:58:58.627Z,37.10
2023-01-18T12:01:43.537Z,36.35
2023-01-18T12:04:23.003Z,33.00
2023-01-18T12:07:21.616Z,32.20
2023-01-18T12:09:53.062Z,37.28
2023-01-18T12:12:54.066Z,39.50
2023-01-18T12:15:50.162Z,37.13
2023-01-18T12:18:31.996Z,35.30
2023-01-18T12:21:12.509Z,38.05
2023-01-18T12:24:10.823Z,37.05
2023-01-18T12:26:43.559Z,36.80
2023-01-18T12:29:14.878Z,31.40
2023-01-18T12:31:57.993Z,36.47
2023-01-18T12:34:58.960Z,30.17
2023-01-18T12:38:08.266Z,36.55
2023-01-18T12:40:44.656Z,31.27
2023-01-18T12:43:12.447Z,35.28
2023-01-18T12:46:05.622Z,33.08
2023-01-18T12:48:44.190Z,24.10
2023-01-18T12:51:16.946Z,94.07
2023-01-18T12:53:48.351Z,26.63
2023-01-18T12:56:20.128Z,23.55
2023-01-18T12:58:55.070Z,23.83
2023-01-18T13:01:22.852Z,24.23
2023-01-18T13:03:51.786Z,23.02
2023-01-18T13:06:20.008Z,23.58
2023-01-18T13:08:57.317Z,25.35
2023-01-18T13:11:34.743Z,21.35
2023-01-18T13:14:35.356Z,21.80
2023-01-18T13:17:08.776Z,23.08
2023-01-18T13:19:45.731Z,19.98
2023-01-18T13:22:28.450Z,26.50
2023-01-18T13:25:41.774Z,19.38
2023-01-18T13:28:18.987Z,26.17
2023-01-18T13:31:04.913Z,17.83
2023-01-18T13:33:34.754Z,22.83
2023-01-18T13:36:14.140Z,19.42
2023-01-18T13:38:58.557Z,14.23
2023-01-18T13:41:29.705Z,22.45
2023-01-18T13:44:01.354Z,15.02
2023-01-18T13:46:29.075Z,17.52
2023-01-18T13:48:58.112Z,22.25
2023-01-18T13:51:37.188Z,15.38
2023-01-18T13:54:04.566Z,16.90
2023-01-18T13:56:33.166Z,12.77
2023-01-18T13:59:02.729Z,19.38
2023-01-18T14:01:38.691Z,19.33
2023-01-18T14:04:26.034Z,15.02
2023-01-18T14:06:53.650Z,15.65
2023-01-18T14:09:33.930Z,13.77
2023-01-18T14:12:00.993Z,15.73
2023-01-18T14:14:32.808Z,14.40
2023-01-18T14:17:14.013Z,15.70
2023-01-18T14:19:50.180Z,17.85
2023-01-18T14:22:51.215Z,16.67
2023-01-18T14:25:38.317Z,9.15
2023-01-18T14:28:09.860Z,9.15
2023-01-18T14:30:38.617Z,12.13
2023-01-18T14:33:13.366Z,18.40
2023-01-18T14:35:51.239Z,12.75
2023-01-18T14:38:20.419Z,18.17
2023-01-18T14:40:50.395Z,17.90
2023-01-18T14:43:23.977Z,16.77
2023-01-18T14:46:02.730Z,14.40
2023-01-18T14:48:34.612Z,15.05
2023-01-18T14:51:02.564Z,18.67
2023-01-18T14:53:31.762Z,12.82
2023-01-18T14:56:19.608Z,13.35
2023-01-18T14:59:00.420Z,13.13
2023-01-18T15:01:31.748Z,19.10
2023-01-18T15:04:04.281Z,16.23
2023-01-18T15:06:46.148Z,23.35
2023-01-18T15:09:13.151Z,16.05
2023-01-18T15:11:41.628Z,27.45
2023-01-18T15:14:20.684Z,19.58
2023-01-18T15:16:48.914Z,16.13
2023-01-18T15:19:38.908Z,19.00
2023-01-18T15:22:07.650Z,19.55
2023-01-18T15:24:41.306Z,16.17
2023-01-18T15:27:13.822Z,21.23
2023-01-18T15:29:40.918Z,27.92
2023-01-18T15:32:20.065Z,19.45
2023-01-18T15:34:48.635Z,17.23
2023-01-18T15:37:30.324Z,20.45
2023-01-18T15:39:57.758Z,23.73
2023-01-18T15:42:38.637Z,21.90
2023-01-18T15:45:12.933Z,15.25
2023-01-18T15:47:39.684Z,18.95
2023-01-18T15:50:21.672Z,15.13
2023-01-18T15:52:54.100Z,16.50
2023-01-18T15:55:46.474Z,16.92
2023-01-18T15:58:33.291Z,21.30
2023-01-18T16:01:05.691Z,20.35
2023-01-18T16:03:39.181Z,17.85
2023-01-18T16:06:11.355Z,16.85
2023-01-18T16:08:57.001Z,19.50
2023-01-18T16:11:32.723Z,19.58
2023-01-18T16:14:02.683Z,27.42
2023-01-18T16:16:29.839Z,16.40
2023-01-18T16:19:09.783Z,19.10
2023-01-18T16:21:50.329Z,21.65
2023-01-18T16:24:17.192Z,21.80
2023-01-18T16:26:47.023Z,20.13
2023-01-18T16:29:13.696Z,15.75
2023-01-18T16:31:43.532Z,19.70
2023-01-18T16:34:22.326Z,16.17
2023-01-18T16:36:49.952Z,22.77
2023-01-18T16:39:16.554Z,24.52
2023-01-18T16:41:51.113Z,19.85
2023-01-18T16:44:18.251Z,19.17
2023-01-18T16:46:45.722Z,20.20
2023-01-18T16:49:13.036Z,22.35
2023-01-18T16:51:40.587Z,18.08
2023-01-18T16:54:07.352Z,17.05
2023-01-18T16:56:34.188Z,21.17
2023-01-18T16:59:04.888Z,27.33
2023-01-18T17:01:39.443Z,21.45
2023-01-18T17:04:06.884Z,20.30
2023-01-18T17:06:33.561Z,28.30
2023-01-18T17:09:00.745Z,18.35
2023-01-18T17:11:27.368Z,13.45
2023-01-18T17:13:54.027Z,11.10
2023-01-18T17:16:20.719Z,17.45
2023-01-18T17:18:48.149Z,15.07
2023-01-18T17:21:15.032Z,19.45
2023-01-18T17:23:41.870Z,16.60
2023-01-18T17:26:13.946Z,16.23
2023-01-18T17:28:40.625Z,16.88
2023-01-18T17:31:08.418Z,22.15
2023-01-18T17:33:39.170Z,16.90
2023-01-18T17:36:07.023Z,17.77
2023-01-18T17:38:34.408Z,29.20
2023-01-18T17:41:01.464Z,16.60
2023-01-18T17:43:34.015Z,18.87
2023-01-18T17:46:08.825Z,15.13
2023-01-18T17:48:35.531Z,17.10
2023-01-18T17:51:06.304Z,18.17
2023-01-18T17:53:33.082Z,16.02
2023-01-18T17:55:59.755Z,15.23
2023-01-18T17:58:26.649Z,15.80
2023-01-18T18:00:53.545Z,17.02
2023-01-18T18:03:20.709Z,21.48
2023-01-18T18:05:47.447Z,20.42
2023-01-18T18:08:14.187Z,25.90
2023-01-18T18:10:43.553Z,17.15
2023-01-18T18:13:10.218Z,13.07
2023-01-18T18:15:38.347Z,11.75
2023-01-18T18:18:07.427Z,14.32
2023-01-18T18:20:38.396Z,19.52
2023-01-18T18:23:05.025Z,14.98
2023-01-18T18:25:33.032Z,15.20
2023-01-18T18:27:59.704Z,12.50
2023-01-18T18:30:26.382Z,13.35
2023-01-18T18:32:53.000Z,18.80
2023-01-18T18:35:25.367Z,18.33
2023-01-18T18:37:53.933Z,12.95
2023-01-18T18:40:20.974Z,15.75
2023-01-18T18:43:00.768Z,15.07
2023-01-18T18:45:30.385Z,19.23
2023-01-18T18:47:57.025Z,13.45
2023-01-18T18:50:23.672Z,23.38
2023-01-18T18:52:50.350Z,17.45
2023-01-18T18:55:17.703Z,17.70
2023-01-18T18:57:44.637Z,15.07
2023-01-18T19:00:12.047Z,13.87
2023-01-18T19:02:44.138Z,16.40
2023-01-18T19:05:11.132Z,13.23
2023-01-18T19:07:38.054Z,16.42
2023-01-18T19:10:05.934Z,20.60
2023-01-18T19:12:32.631Z,20.30
2023-01-18T19:14:59.575Z,18.87
2023-01-18T19:17:30.659Z,17.95
2023-01-18T19:19:58.141Z,20.70
2023-01-18T19:22:25.125Z,18.23
2023-01-18T19:24:51.763Z,19.33
2023-01-18T19:27:18.891Z,17.83
2023-01-18T19:29:46.357Z,18.50
2023-01-18T19:32:12.945Z,21.30
2023-01-18T19:34:39.835Z,16.25
2023-01-18T19:37:06.933Z,20.60
2023-01-18T19:39:34.892Z,26.57
2023-01-18T19:42:02.369Z,23.37
2023-01-18T19:44:29.108Z,17.33
2023-01-18T19:46:56.885Z,17.20
2023-01-18T19:49:26.229Z,17.60
2023-01-18T19:51:54.531Z,17.75
2023-01-18T19:54:21.838Z,15.17
2023-01-18T19:56:49.596Z,16.57
2023-01-18T19:59:16.500Z,18.55
2023-01-18T20:01:43.406Z,16.87
2023-01-18T20:04:10.306Z,18.10
2023-01-18T20:06:39.915Z,22.07
2023-01-18T20:09:18.588Z,21.47
2023-01-18T20:11:46.578Z,18.07
2023-01-18T20:14:13.294Z,15.13
2023-01-18T20:16:40.065Z,16.77
2023-01-18T20:19:06.834Z,15.98
2023-01-18T20:21:33.544Z,17.17
2023-01-18T20:24:01.139Z,15.70
2023-01-18T20:26:36.508Z,13.68
2023-01-18T20:29:06.816Z,12.40
2023-01-18T20:31:35.920Z,14.70
2023-01-18T20:34:03.409Z,12.30
2023-01-18T20:36:30.444Z,13.15
2023-01-18T20:38:57.344Z,13.80
2023-01-18T20:41:24.156Z,13.82
2023-01-18T20:43:50.804Z,15.15
2023-01-18T20:46:17.437Z,12.90
2023-01-18T20:48:44.127Z,14.65
2023-01-18T20:51:10.998Z,10.95
2023-01-18T20:53:40.597Z,10.35
2023-01-18T20:56:17.057Z,14.00
2023-01-18T20:58:54.559Z,10.73
2023-01-18T21:01:21.805Z,11.13
2023-01-18T21:03:55.333Z,11.10
2023-01-18T21:06:22.131Z,12.45
2023-01-18T21:08:54.256Z,13.05
2023-01-18T21:11:25.452Z,9.40
2023-01-18T21:13:53.395Z,12.80
2023-01-18T21:16:20.654Z,10.90
2023-01-18T21:18:48.498Z,15.15
2023-01-18T21:21:15.163Z,14.40
2023-01-18T21:23:41.858Z,10.30
2023-01-18T21:26:10.232Z,22.30
2023-01-18T21:28:36.959Z,14.77
2023-01-18T21:31:03.757Z,21.27
2023-01-18T21:33:31.596Z,11.82
2023-01-18T21:36:06.108Z,13.48
2023-01-18T21:38:32.950Z,17.83
2023-01-18T21:41:19.697Z,20.30
2023-01-18T21:44:06.843Z,15.25
2023-01-18T21:46:33.677Z,16.95
2023-01-18T21:49:07.050Z,11.80
2023-01-18T21:51:52.271Z,16.92
2023-01-18T21:54:19.713Z,14.50
2023-01-18T21:56:47.334Z,14.23
2023-01-18T21:59:14.187Z,17.10
2023-01-18T22:01:43.664Z,15.15
2023-01-18T22:04:31.562Z,12.48
2023-01-18T22:06:59.351Z,14.45
2023-01-18T22:09:27.324Z,13.82
2023-01-18T22:11:56.294Z,12.70
2023-01-18T22:14:23.718Z,15.88
2023-01-18T22:16:50.553Z,17.63
2023-01-18T22:19:19.028Z,14.63
2023-01-18T22:21:45.813Z,15.63
2023-01-18T22:24:13.057Z,12.25
2023-01-18T22:26:40.781Z,15.65
2023-01-18T22:29:08.378Z,12.55
2023-01-18T22:31:35.482Z,11.93
2023-01-18T22:34:04.485Z,13.25
2023-01-18T22:36:32.584Z,18.63
2023-01-18T22:38:59.280Z,16.85
2023-01-18T22:41:28.043Z,17.77
2023-01-18T22:43:55.402Z,17.45
2023-01-18T22:46:23.333Z,12.95
2023-01-18T22:48:50.360Z,16.65
2023-01-18T22:51:21.617Z,15.05
2023-01-18T22:53:49.511Z,10.38
2023-01-18T22:56:22.218Z,15.57
2023-01-18T22:58:49.592Z,13.50
2023-01-18T23:01:22.543Z,19.15
2023-01-18T23:03:50.105Z,16.52
2023-01-18T23:06:17.620Z,21.70
2023-01-18T23:08:45.889Z,16.42
2023-01-18T23:11:21.837Z,15.65
2023-01-18T23:14:13.176Z,12.93
2023-01-18T23:16:58.338Z,13.13
2023-01-18T23:19:25.551Z,13.25
2023-01-18T23:21:53.297Z,20.30
2023-01-18T23:24:20.388Z,22.13
2023-01-18T23:26:47.566Z,16.92
2023-01-18T23:29:14.672Z,16.33
2023-01-18T23:31:42.646Z,18.23
2023-01-18T23:34:09.861Z,13.57
2023-01-18T23:36:36.661Z,16.70
2023-01-18T23:39:21.956Z,15.18
2023-01-18T23:42:07.168Z,16.73
2023-01-18T23:44:52.444Z,12.77
2023-01-18T23:47:37.632Z,18.00
2023-01-18T23:50:23.343Z,19.95
2023-01-18T23:53:08.515Z,16.55
2023-01-18T23:55:35.155Z,13.93
2023-01-18T23:58:02.353Z,21.73
